createdAt,value
2019-01-19T00:01:15.260Z,99676.52
2019-01-19T00:04:21.592Z,99671.05
2019-01-19T00:07:38.241Z,99667.70
2019-01-19T00:10:32.149Z,99670.12
2019-01-19T00:13:29.576Z,99671.80
2019-01-19T00:16:10.750Z,99671.45
2019-01-19T00:19:13.764Z,99666.55
2019-01-19T00:21:57.111Z,99672.41
2019-01-19T00:24:36.626Z,99674.88
2019-01-19T00:27:31.720Z,99678.52
2019-01-19T00:30:35.469Z,99679.38
2019-01-19T00:33:28.024Z,99677.23
2019-01-19T00:36:06.893Z,99676.25
2019-01-19T00:38:56.649Z,99678.89
2019-01-19T00:42:02.651Z,99678.54
2019-01-19T00:44:56.986Z,99686.03
2019-01-19T00:48:25.463Z,99685.35
2019-01-19T00:51:42.617Z,99684.05
2019-01-19T00:54:19.637Z,99682.63
2019-01-19T00:57:26.299Z,99684.79
2019-01-19T01:00:00.315Z,99684.02
2019-01-19T01:02:42.140Z,99688.13
2019-01-19T01:05:50.099Z,99682.86
2019-01-19T01:09:12.496Z,99692.42
2019-01-19T01:11:54.647Z,99690.33
2019-01-19T01:15:00.676Z,99693.49
2019-01-19T01:17:50.897Z,99696.13
2019-01-19T01:20:52.741Z,99685.27
2019-01-19T01:24:12.256Z,99690.89
2019-01-19T01:27:13.414Z,99689.08
2019-01-19T01:30:29.642Z,99683.55
2019-01-19T01:33:43.280Z,99676.95
2019-01-19T01:36:49.620Z,99678.16
2019-01-19T01:39:52.291Z,99678.52
2019-01-19T01:42:51.919Z,99677.89
2019-01-19T01:46:14.304Z,99683.34
2019-01-19T01:49:29.740Z,99682.00
2019-01-19T01:52:11.679Z,99681.15
2019-01-19T01:54:56.487Z,99680.44
2019-01-19T01:57:30.579Z,99679.77
2019-01-19T02:00:48.559Z,99671.23
2019-01-19T02:04:01.775Z,99672.38
2019-01-19T02:07:30.177Z,99667.93
2019-01-19T02:10:49.409Z,99664.53
2019-01-19T02:14:05.701Z,99668.50
2019-01-19T02:17:05.900Z,99668.44
2019-01-19T02:20:34.308Z,99660.30
2019-01-19T02:23:35.801Z,99657.41
2019-01-19T02:26:51.226Z,99653.59
2019-01-19T02:30:04.692Z,99648.00
2019-01-19T02:33:07.137Z,99646.75
2019-01-19T02:36:18.463Z,99643.38
2019-01-19T02:39:18.948Z,99644.33
2019-01-19T02:42:18.516Z,99646.52
2019-01-19T02:45:28.770Z,99645.33
2019-01-19T02:48:24.703Z,99651.14
2019-01-19T02:51:06.097Z,99653.47
2019-01-19T02:54:11.011Z,99650.18
2019-01-19T02:57:22.888Z,99653.20
2019-01-19T03:00:25.470Z,99651.54
2019-01-19T03:03:21.845Z,99650.69
2019-01-19T03:06:10.599Z,99659.05
2019-01-19T03:09:27.255Z,99663.50
2019-01-19T03:12:40.275Z,99658.47
2019-01-19T03:16:02.193Z,99651.27
2019-01-19T03:18:58.260Z,99646.09
2019-01-19T03:21:56.567Z,99660.09
2019-01-19T03:25:02.648Z,99658.60
2019-01-19T03:28:01.881Z,99664.06
2019-01-19T03:31:10.454Z,99655.03
2019-01-19T03:34:02.524Z,99661.47
2019-01-19T03:37:00.053Z,99674.17
2019-01-19T03:39:40.751Z,99674.46
2019-01-19T03:42:53.094Z,99670.97
2019-01-19T03:46:04.065Z,99676.25
2019-01-19T03:49:15.705Z,99673.80
2019-01-19T03:52:07.465Z,99673.48
2019-01-19T03:55:26.427Z,99671.25
2019-01-19T03:58:20.435Z,99668.20
2019-01-19T04:01:32.060Z,99671.27
2019-01-19T04:05:03.485Z,99673.61
2019-01-19T04:08:16.596Z,99678.39
2019-01-19T04:11:41.938Z,99673.50
2019-01-19T04:14:53.001Z,99672.63
2019-01-19T04:17:58.837Z,99676.66
2019-01-19T04:20:53.605Z,99675.48
2019-01-19T04:23:23.348Z,99680.40
2019-01-19T04:25:59.934Z,99679.95
2019-01-19T04:28:29.840Z,99680.87
2019-01-19T04:30:59.340Z,99681.81
2019-01-19T04:33:28.925Z,99684.65
2019-01-19T04:35:58.869Z,99672.25
2019-01-19T04:38:28.328Z,99677.34
2019-01-19T04:40:58.223Z,99675.59
2019-01-19T04:43:27.747Z,99682.15
2019-01-19T04:45:57.133Z,99674.36
2019-01-19T04:48:26.688Z,99684.38
2019-01-19T04:50:56.128Z,99693.41
2019-01-19T04:53:25.566Z,99686.77
2019-01-19T04:55:55.098Z,99691.13
2019-01-19T04:58:24.637Z,99696.11
2019-01-19T05:00:54.029Z,99698.29
2019-01-19T05:03:23.449Z,99697.69
2019-01-19T05:05:53.242Z,99703.28
2019-01-19T05:08:22.712Z,99703.33
2019-01-19T05:10:52.202Z,99707.81
2019-01-19T05:13:21.639Z,99709.63
2019-01-19T05:15:51.145Z,99716.52
2019-01-19T05:18:20.709Z,99728.58
2019-01-19T05:20:51.911Z,99730.78
2019-01-19T05:23:21.364Z,99728.23
2019-01-19T05:25:50.851Z,99733.87
2019-01-19T05:28:20.306Z,99743.43
2019-01-19T05:30:49.798Z,99744.28
2019-01-19T05:33:19.282Z,99743.52
2019-01-19T05:35:48.693Z,99750.14
2019-01-19T05:38:18.206Z,99756.32
2019-01-19T05:40:47.696Z,99756.57
2019-01-19T05:43:18.209Z,99761.70
2019-01-19T05:45:47.619Z,99763.16
2019-01-19T05:48:17.027Z,99763.08
2019-01-19T05:50:46.585Z,99759.47
2019-01-19T05:53:16.066Z,99760.98
2019-01-19T05:55:45.541Z,99762.69
2019-01-19T05:58:15.154Z,99755.25
2019-01-19T06:00:44.840Z,99763.84
2019-01-19T06:03:14.365Z,99762.16
2019-01-19T06:05:44.000Z,99755.70
2019-01-19T06:08:13.518Z,99758.23
2019-01-19T06:10:42.947Z,99766.85
2019-01-19T06:13:12.385Z,99761.11
2019-01-19T06:15:42.069Z,99761.02
2019-01-19T06:18:14.524Z,99765.29
2019-01-19T06:20:43.961Z,99765.22
2019-01-19T06:23:13.494Z,99771.23
2019-01-19T06:25:43.047Z,99771.23
2019-01-19T06:28:12.667Z,99777.32
2019-01-19T06:30:42.067Z,99785.06
2019-01-19T06:33:11.543Z,99791.77
2019-01-19T06:35:41.076Z,99786.80
2019-01-19T06:38:10.571Z,99784.56
2019-01-19T06:40:40.053Z,99783.08
2019-01-19T06:43:09.723Z,99789.86
2019-01-19T06:45:39.598Z,99789.16
2019-01-19T06:48:09.012Z,99793.77
2019-01-19T06:50:38.575Z,99797.98
2019-01-19T06:53:08.085Z,99793.95
2019-01-19T06:55:37.937Z,99791.70
2019-01-19T06:58:07.882Z,99795.48
2019-01-19T07:00:37.381Z,99795.42
2019-01-19T07:03:06.976Z,99794.89
2019-01-19T07:05:36.470Z,99803.09
2019-01-19T07:08:06.072Z,99803.45
2019-01-19T07:10:35.805Z,99801.70
2019-01-19T07:13:05.602Z,99807.23
2019-01-19T07:15:35.080Z,99802.39
2019-01-19T07:18:04.596Z,99802.81
2019-01-19T07:20:34.142Z,99805.32
2019-01-19T07:23:03.636Z,99804.33
2019-01-19T07:25:33.183Z,99807.58
2019-01-19T07:28:02.647Z,99812.83
2019-01-19T07:30:32.242Z,99814.80
2019-01-19T07:33:01.782Z,99819.89
2019-01-19T07:35:31.205Z,99817.28
2019-01-19T07:38:00.636Z,99821.13
2019-01-19T07:40:30.164Z,99826.44
2019-01-19T07:43:03.434Z,99831.22
2019-01-19T07:45:32.854Z,99832.97
2019-01-19T07:48:02.468Z,99832.25
2019-01-19T07:50:32.191Z,99838.13
2019-01-19T07:53:01.674Z,99839.42
2019-01-19T07:55:31.191Z,99839.14
2019-01-19T07:58:00.795Z,99842.23
2019-01-19T08:00:31.882Z,99850.29
2019-01-19T08:03:03.278Z,99857.81
2019-01-19T08:05:32.994Z,99855.38
2019-01-19T08:08:03.531Z,99863.09
2019-01-19T08:10:32.925Z,99867.05
2019-01-19T08:13:02.401Z,99869.14
2019-01-19T08:15:31.888Z,99867.70
2019-01-19T08:18:01.382Z,99873.95
2019-01-19T08:20:30.991Z,99875.84
2019-01-19T08:23:00.403Z,99880.27
2019-01-19T08:25:29.942Z,99888.55
2019-01-19T08:27:59.640Z,99890.42
2019-01-19T08:30:31.550Z,99891.86
2019-01-19T08:33:00.998Z,99893.00
2019-01-19T08:35:31.916Z,99899.06
2019-01-19T08:38:01.400Z,99904.94
2019-01-19T08:40:33.357Z,99910.21
2019-01-19T08:43:19.419Z,99908.41
2019-01-19T08:45:48.927Z,99914.09
2019-01-19T08:48:18.501Z,99915.08
2019-01-19T08:50:48.029Z,99910.66
2019-01-19T08:53:17.551Z,99907.89
2019-01-19T08:55:46.931Z,99914.34
2019-01-19T08:58:16.591Z,99920.77
2019-01-19T09:00:46.083Z,99924.95
2019-01-19T09:03:15.575Z,99926.05
2019-01-19T09:05:47.062Z,99923.55
2019-01-19T09:08:16.675Z,99921.86
2019-01-19T09:10:46.201Z,99922.19
2019-01-19T09:13:15.761Z,99920.30
2019-01-19T09:15:46.106Z,99920.50
2019-01-19T09:18:15.563Z,99923.19
2019-01-19T09:20:45.424Z,99921.42
2019-01-19T09:23:23.940Z,99919.94
2019-01-19T09:25:53.733Z,99921.72
2019-01-19T09:28:23.324Z,99915.26
2019-01-19T09:30:53.053Z,99917.19
2019-01-19T09:33:23.137Z,99915.04
2019-01-19T09:35:52.671Z,99912.50
2019-01-19T09:38:22.759Z,99911.22
2019-01-19T09:40:52.309Z,99912.00
2019-01-19T09:43:21.709Z,99910.58
2019-01-19T09:45:51.213Z,99904.58
2019-01-19T09:48:20.746Z,99906.52
2019-01-19T09:50:50.267Z,99897.83
2019-01-19T09:53:19.665Z,99889.69
2019-01-19T09:55:49.424Z,99880.44
2019-01-19T09:58:18.915Z,99875.39
2019-01-19T10:00:48.324Z,99877.07
2019-01-19T10:03:17.741Z,99879.03
2019-01-19T10:05:47.256Z,99875.52
2019-01-19T10:08:16.732Z,99871.37
2019-01-19T10:10:46.475Z,99864.77
2019-01-19T10:13:15.884Z,99865.02
2019-01-19T10:15:45.376Z,99862.27
2019-01-19T10:18:15.071Z,99871.20
2019-01-19T10:20:44.465Z,99870.94
2019-01-19T10:23:13.883Z,99871.03
2019-01-19T10:25:43.789Z,99865.27
2019-01-19T10:28:13.489Z,99864.37
2019-01-19T10:30:42.868Z,99857.73
2019-01-19T10:33:13.413Z,99854.59
2019-01-19T10:35:42.899Z,99848.99
2019-01-19T10:38:12.414Z,99851.84
2019-01-19T10:40:41.860Z,99847.17
2019-01-19T10:43:12.586Z,99851.70
2019-01-19T10:45:42.054Z,99851.87
2019-01-19T10:48:11.522Z,99857.70
2019-01-19T10:50:41.022Z,99851.09
2019-01-19T10:53:10.461Z,99844.23
2019-01-19T10:55:39.885Z,99839.46
2019-01-19T10:58:09.375Z,99829.79
2019-01-19T11:00:38.851Z,99834.20
2019-01-19T11:03:08.429Z,99825.97
2019-01-19T11:05:37.853Z,99827.48
2019-01-19T11:08:08.815Z,99827.63
2019-01-19T11:10:38.345Z,99830.97
2019-01-19T11:13:07.828Z,99824.19
2019-01-19T11:15:37.269Z,99822.33
2019-01-19T11:18:06.883Z,99825.21
2019-01-19T11:20:36.411Z,99818.43
2019-01-19T11:23:06.078Z,99812.20
2019-01-19T11:25:36.279Z,99806.93
2019-01-19T11:28:06.157Z,99801.50
2019-01-19T11:30:35.575Z,99797.59
2019-01-19T11:33:05.109Z,99802.05
2019-01-19T11:35:34.709Z,99797.28
2019-01-19T11:38:04.248Z,99793.61
2019-01-19T11:40:38.609Z,99784.28
2019-01-19T11:43:09.916Z,99782.57
2019-01-19T11:45:39.856Z,99786.04
2019-01-19T11:48:09.557Z,99785.58
2019-01-19T11:50:39.089Z,99786.77
2019-01-19T11:53:08.558Z,99787.58
2019-01-19T11:55:38.118Z,99783.27
2019-01-19T11:58:08.022Z,99777.70
2019-01-19T12:00:39.600Z,99780.05
2019-01-19T12:03:09.267Z,99775.98
2019-01-19T12:05:39.836Z,99778.86
2019-01-19T12:08:10.807Z,99775.36
2019-01-19T12:10:40.354Z,99779.96
2019-01-19T12:13:09.817Z,99784.06
2019-01-19T12:15:39.293Z,99782.74
2019-01-19T12:18:09.037Z,99790.40
2019-01-19T12:20:44.248Z,99782.89
2019-01-19T12:23:13.888Z,99776.16
2019-01-19T12:25:43.287Z,99777.70
2019-01-19T12:28:12.828Z,99775.05
2019-01-19T12:30:42.523Z,99769.30
2019-01-19T12:33:12.151Z,99770.45
2019-01-19T12:35:41.555Z,99769.06
2019-01-19T12:38:11.373Z,99769.39
2019-01-19T12:40:40.870Z,99765.10
2019-01-19T12:43:21.400Z,99766.42
2019-01-19T12:46:02.724Z,99770.79
2019-01-19T12:48:32.250Z,99769.94
2019-01-19T12:51:03.817Z,99775.34
2019-01-19T12:53:33.225Z,99776.00
2019-01-19T12:56:02.664Z,99771.98
2019-01-19T12:58:32.118Z,99775.75
2019-01-19T13:01:01.703Z,99778.46
2019-01-19T13:03:31.359Z,99786.45
2019-01-19T13:06:41.219Z,99786.55
2019-01-19T13:09:18.041Z,99779.69
2019-01-19T13:12:23.021Z,99791.24
2019-01-19T13:15:28.252Z,99790.46
2019-01-19T13:18:41.524Z,99790.83
2019-01-19T13:22:03.090Z,99805.92
2019-01-19T13:25:22.511Z,99800.78
2019-01-19T13:28:39.085Z,99802.25
2019-01-19T13:31:53.140Z,99802.66
2019-01-19T13:35:27.839Z,99795.06
2019-01-19T13:38:55.838Z,99804.51
2019-01-19T13:42:16.806Z,99808.57
2019-01-19T13:45:05.532Z,99807.92
2019-01-19T13:48:09.791Z,99811.02
2019-01-19T13:51:02.455Z,99809.10
2019-01-19T13:54:21.160Z,99814.64
2019-01-19T13:57:43.736Z,99813.38
2019-01-19T14:00:50.125Z,99803.83
2019-01-19T14:04:15.549Z,99803.19
2019-01-19T14:07:36.597Z,99818.47
2019-01-19T14:10:37.758Z,99815.29
2019-01-19T14:13:49.951Z,99813.88
2019-01-19T14:16:39.661Z,99819.13
2019-01-19T14:20:01.875Z,99815.40
2019-01-19T14:23:24.811Z,99809.53
2019-01-19T14:26:24.832Z,99820.39
2019-01-19T14:29:36.660Z,99820.53
2019-01-19T14:32:35.683Z,99817.37
2019-01-19T14:35:38.432Z,99818.29
2019-01-19T14:38:32.566Z,99816.97
2019-01-19T14:41:38.974Z,99819.98
2019-01-19T14:44:49.042Z,99818.64
2019-01-19T14:47:38.725Z,99822.16
2019-01-19T14:50:42.767Z,99824.56
2019-01-19T14:53:58.703Z,99823.27
2019-01-19T14:57:09.133Z,99825.92
2019-01-19T15:00:11.318Z,99831.56
2019-01-19T15:03:10.043Z,99828.17
2019-01-19T15:06:29.195Z,99834.16
2019-01-19T15:09:40.398Z,99830.06
2019-01-19T15:12:43.927Z,99827.30
2019-01-19T15:15:44.866Z,99824.73
2019-01-19T15:18:52.325Z,99822.43
2019-01-19T15:21:53.201Z,99826.03
2019-01-19T15:25:18.462Z,99836.56
2019-01-19T15:28:35.064Z,99835.25
2019-01-19T15:31:32.167Z,99833.83
2019-01-19T15:34:35.644Z,99830.58
2019-01-19T15:37:45.702Z,99835.42
2019-01-19T15:41:05.192Z,99836.38
2019-01-19T15:44:18.865Z,99845.38
2019-01-19T15:47:41.658Z,99848.16
2019-01-19T15:51:04.860Z,99846.92
2019-01-19T15:53:59.879Z,99850.58
2019-01-19T15:57:05.811Z,99850.17
2019-01-19T16:00:14.932Z,99855.17
2019-01-19T16:03:14.148Z,99859.80
2019-01-19T16:06:27.209Z,99863.23
2019-01-19T16:09:42.674Z,99855.87
2019-01-19T16:12:46.105Z,99855.58
2019-01-19T16:15:59.310Z,99860.31
2019-01-19T16:19:21.344Z,99859.86
2019-01-19T16:22:25.516Z,99855.78
2019-01-19T16:25:23.872Z,99870.38
2019-01-19T16:28:24.772Z,99870.91
2019-01-19T16:31:36.934Z,99872.34
2019-01-19T16:34:43.893Z,99880.78
2019-01-19T16:37:56.876Z,99879.00
2019-01-19T16:41:10.576Z,99880.77
2019-01-19T16:43:47.634Z,99884.77
2019-01-19T16:47:01.173Z,99892.94
2019-01-19T16:50:14.525Z,99892.94
2019-01-19T16:53:12.614Z,99892.69
2019-01-19T16:56:20.277Z,99900.52
2019-01-19T16:59:21.058Z,99909.50
2019-01-19T17:02:03.011Z,99912.09
2019-01-19T17:05:14.882Z,99915.02
2019-01-19T17:08:23.633Z,99918.28
2019-01-19T17:11:32.290Z,99918.66
2019-01-19T17:14:27.298Z,99918.45
2019-01-19T17:17:34.751Z,99916.41
2019-01-19T17:20:40.213Z,99924.28
2019-01-19T17:23:31.190Z,99922.89
2019-01-19T17:26:45.920Z,99930.88
2019-01-19T17:29:58.401Z,99930.83
2019-01-19T17:33:07.053Z,99926.67
2019-01-19T17:36:13.454Z,99930.55
2019-01-19T17:39:13.141Z,99931.46
2019-01-19T17:42:03.197Z,99926.14
2019-01-19T17:45:05.926Z,99938.98
2019-01-19T17:47:56.984Z,99933.56
2019-01-19T17:51:19.187Z,99942.83
2019-01-19T17:54:15.476Z,99940.31
2019-01-19T17:57:34.317Z,99941.61
2019-01-19T18:00:44.607Z,99943.16
2019-01-19T18:03:58.213Z,99948.73
2019-01-19T18:06:52.121Z,99938.26
2019-01-19T18:09:47.586Z,99939.67
2019-01-19T18:13:09.477Z,99936.80
2019-01-19T18:16:22.061Z,99941.31
2019-01-19T18:19:30.664Z,99947.42
2019-01-19T18:22:26.925Z,99951.47
2019-01-19T18:25:43.065Z,99946.62
2019-01-19T18:28:56.915Z,99943.86
2019-01-19T18:32:00.768Z,99950.09
2019-01-19T18:35:01.110Z,99954.13
2019-01-19T18:38:10.256Z,99952.58
2019-01-19T18:41:09.622Z,99957.92
2019-01-19T18:44:25.946Z,99959.64
2019-01-19T18:47:37.782Z,99963.67
2019-01-19T18:50:59.510Z,99958.68
2019-01-19T18:53:55.533Z,99958.33
2019-01-19T18:57:04.199Z,99963.67
2019-01-19T19:00:11.541Z,99970.73
2019-01-19T19:03:20.143Z,99968.52
2019-01-19T19:06:13.371Z,99974.22
2019-01-19T19:09:18.259Z,99975.69
2019-01-19T19:12:30.089Z,99975.23
2019-01-19T19:15:35.997Z,99978.91
2019-01-19T19:18:39.951Z,99983.70
2019-01-19T19:21:39.422Z,99991.67
2019-01-19T19:24:21.024Z,100000.09
2019-01-19T19:27:27.654Z,99996.25
2019-01-19T19:30:32.214Z,99996.41
2019-01-19T19:33:34.188Z,99995.59
2019-01-19T19:36:38.901Z,99996.25
2019-01-19T19:39:50.774Z,99995.30
2019-01-19T19:42:48.461Z,99996.21
2019-01-19T19:45:54.281Z,99992.87
2019-01-19T19:49:04.513Z,99990.58
2019-01-19T19:52:05.463Z,100001.92
2019-01-19T19:54:35.902Z,100008.79
2019-01-19T19:57:06.054Z,100004.69
2019-01-19T19:59:35.483Z,100005.91
2019-01-19T20:02:05.182Z,100007.25
2019-01-19T20:04:34.741Z,100012.54
2019-01-19T20:07:04.480Z,100016.92
2019-01-19T20:09:34.117Z,100018.14
2019-01-19T20:12:09.766Z,100015.88
2019-01-19T20:14:39.376Z,100021.13
2019-01-19T20:17:09.006Z,100015.15
2019-01-19T20:19:38.469Z,100018.71
2019-01-19T20:22:08.104Z,100016.05
2019-01-19T20:24:37.535Z,100023.30
2019-01-19T20:27:06.931Z,100024.20
2019-01-19T20:29:36.424Z,100014.23
2019-01-19T20:32:06.024Z,100014.64
2019-01-19T20:34:35.467Z,100008.86
2019-01-19T20:37:05.089Z,100010.62
2019-01-19T20:39:34.530Z,100008.37
2019-01-19T20:42:04.019Z,100012.22
2019-01-19T20:44:33.489Z,100010.54
2019-01-19T20:47:02.943Z,100019.87
2019-01-19T20:49:32.407Z,100013.90
2019-01-19T20:52:01.847Z,100021.84
2019-01-19T20:54:31.305Z,100012.14
2019-01-19T20:57:00.790Z,100015.34
2019-01-19T20:59:30.424Z,100012.51
2019-01-19T21:01:59.890Z,100012.27
2019-01-19T21:04:29.349Z,100015.17
2019-01-19T21:06:59.034Z,100012.22
2019-01-19T21:09:28.476Z,100013.45
2019-01-19T21:11:57.878Z,100018.80
2019-01-19T21:14:27.382Z,100013.78
2019-01-19T21:16:56.936Z,100011.20
2019-01-19T21:19:26.375Z,100001.59
2019-01-19T21:21:55.844Z,100003.59
2019-01-19T21:24:26.495Z,99999.22
2019-01-19T21:26:55.946Z,99999.14
2019-01-19T21:29:25.425Z,100002.48
2019-01-19T21:31:54.952Z,100001.18
2019-01-19T21:34:24.498Z,100010.06
2019-01-19T21:36:53.938Z,100003.88
2019-01-19T21:39:23.394Z,100010.57
2019-01-19T21:41:52.899Z,100015.49
2019-01-19T21:44:22.530Z,100021.66
2019-01-19T21:46:51.928Z,100022.28
2019-01-19T21:49:21.386Z,100021.09
2019-01-19T21:51:51.064Z,100018.59
2019-01-19T21:54:20.493Z,100016.84
2019-01-19T21:56:49.894Z,100014.83
2019-01-19T21:59:19.536Z,100015.13
2019-01-19T22:01:49.083Z,100012.59
2019-01-19T22:04:18.528Z,100012.11
2019-01-19T22:06:48.026Z,100004.22
2019-01-19T22:09:17.737Z,100002.95
2019-01-19T22:11:47.338Z,100002.32
2019-01-19T22:14:17.162Z,100005.05
2019-01-19T22:16:46.888Z,100001.82
2019-01-19T22:19:16.508Z,100002.77
2019-01-19T22:21:46.151Z,100000.52
2019-01-19T22:24:15.880Z,99998.27
2019-01-19T22:26:49.910Z,99998.12
2019-01-19T22:29:19.510Z,99984.53
2019-01-19T22:31:49.105Z,99983.39
2019-01-19T22:34:18.760Z,99990.30
2019-01-19T22:36:48.371Z,99993.77
2019-01-19T22:39:18.083Z,99990.22
2019-01-19T22:41:47.727Z,99991.03
2019-01-19T22:44:17.358Z,99984.17
2019-01-19T22:46:47.067Z,99981.22
2019-01-19T22:49:16.742Z,99974.16
2019-01-19T22:51:47.030Z,99981.15
2019-01-19T22:54:16.641Z,99983.47
2019-01-19T22:56:46.601Z,99975.47
2019-01-19T22:59:16.228Z,99970.22
2019-01-19T23:01:51.515Z,99973.03
2019-01-19T23:04:21.121Z,99969.40
2019-01-19T23:06:50.752Z,99965.15
2019-01-19T23:09:20.443Z,99960.74
2019-01-19T23:11:50.138Z,99956.93
2019-01-19T23:14:19.824Z,99958.27
2019-01-19T23:16:49.557Z,99953.80
2019-01-19T23:19:19.359Z,99953.41
2019-01-19T23:21:49.573Z,99954.16
2019-01-19T23:24:19.310Z,99952.44
2019-01-19T23:26:49.793Z,99952.03
2019-01-19T23:29:19.508Z,99952.00
2019-01-19T23:31:48.954Z,99952.67
2019-01-19T23:34:18.421Z,99946.44
2019-01-19T23:36:47.926Z,99940.16
2019-01-19T23:39:17.561Z,99938.59
2019-01-19T23:41:46.968Z,99934.63
2019-01-19T23:44:16.430Z,99939.52
2019-01-19T23:46:45.961Z,99933.73
2019-01-19T23:49:15.403Z,99929.62
2019-01-19T23:51:44.798Z,99929.86
2019-01-19T23:54:14.524Z,99928.92
2019-01-19T23:56:44.003Z,99927.42
2019-01-19T23:59:13.433Z,99926.30
